Time;durP1;ratioP1;P1;durP2;ratioP2;P2;SDS_P1;SDS_P2;PMS_P1;PMS_P2;Temp;Humidity;BMP_temperature;BMP_pressure;BME280_temperature;BME280_humidity;BME280_pressure;Samples;Min_cycle;Max_cycle;Signal;HPM_P1;HPM_P2
2020/12/07 00:00:23;;;;;;;45.80;30.98;;;7.10;99.90;;;;;;2112453;28;20020;-77
2020/12/07 00:01:25;;;;;;;53.15;33.97;;;7.10;99.90;;;;;;2112501;28;20019;-78
2020/12/07 00:02:25;;;;;;;49.95;33.03;;;7.10;99.90;;;;;;2112351;28;20020;-78
2020/12/07 00:03:26;;;;;;;53.83;32.90;;;7.10;99.90;;;;;;2112395;28;20398;-77
2020/12/07 00:04:26;;;;;;;50.33;31.63;;;7.10;99.90;;;;;;2121676;27;20094;-78
2020/12/07 00:05:27;;;;;;;49.72;32.03;;;7.10;99.90;;;;;;2112344;28;20113;-77
2020/12/07 00:06:28;;;;;;;53.15;32.05;;;7.10;99.90;;;;;;2103985;28;20020;-76
2020/12/07 00:07:28;;;;;;;57.72;34.22;;;7.10;99.90;;;;;;2112599;28;20024;-77
2020/12/07 00:08:29;;;;;;;50.70;33.25;;;7.10;99.90;;;;;;2121680;27;20030;-78
2020/12/07 00:09:29;;;;;;;51.45;33.33;;;7.10;99.90;;;;;;2121438;27;20158;-77
2020/12/07 00:10:31;;;;;;;49.90;32.28;;;7.10;99.90;;;;;;2121316;27;20049;-79
2020/12/07 00:11:32;;;;;;;51.17;30.98;;;7.10;99.90;;;;;;2120952;27;20493;-78
2020/12/07 00:12:33;;;;;;;45.35;30.52;;;7.10;99.90;;;;;;2121241;27;20027;-77
2020/12/07 00:13:34;;;;;;;47.35;29.08;;;7.10;99.90;;;;;;2121126;27;20039;-79
2020/12/07 00:14:34;;;;;;;47.83;28.77;;;7.10;99.90;;;;;;2121592;27;20075;-79
2020/12/07 00:15:35;;;;;;;47.83;29.50;;;7.10;99.90;;;;;;2121421;27;20027;-77
2020/12/07 00:16:35;;;;;;;46.25;30.95;;;7.00;99.90;;;;;;2112014;28;20078;-78
2020/12/07 00:17:36;;;;;;;41.13;28.25;;;7.00;99.90;;;;;;2112457;28;20051;-77
2020/12/07 00:18:37;;;;;;;41.38;27.77;;;7.00;99.90;;;;;;2121206;27;20023;-77
2020/12/07 00:19:37;;;;;;;44.58;28.50;;;7.00;99.90;;;;;;2120818;27;20196;-78
2020/12/07 00:20:38;;;;;;;41.58;27.85;;;7.00;99.90;;;;;;2121627;27;20019;-77
2020/12/07 00:21:42;;;;;;;44.08;29.55;;;7.00;99.90;;;;;;2120822;27;20019;-78
2020/12/07 00:22:42;;;;;;;40.92;28.15;;;7.00;99.90;;;;;;2121485;27;20500;-78
2020/12/07 00:23:43;;;;;;;40.70;28.85;;;7.00;99.90;;;;;;2112269;28;20023;-78
2020/12/07 00:24:43;;;;;;;41.15;27.52;;;7.00;99.90;;;;;;2103781;28;20024;-79
2020/12/07 00:25:45;;;;;;;43.67;29.55;;;7.00;99.90;;;;;;2112215;28;20071;-78
2020/12/07 00:26:46;;;;;;;40.67;28.73;;;7.00;99.90;;;;;;2112501;28;20103;-77
2020/12/07 00:27:46;;;;;;;42.28;28.00;;;7.00;99.90;;;;;;2121229;27;20281;-77
2020/12/07 00:28:47;;;;;;;40.17;29.05;;;7.00;99.90;;;;;;2112240;28;20023;-78
2020/12/07 00:29:48;;;;;;;38.03;27.05;;;7.00;99.90;;;;;;2112400;28;20100;-79
2020/12/07 00:30:48;;;;;;;40.65;28.40;;;7.00;99.90;;;;;;2121484;27;20087;-78
2020/12/07 00:31:49;;;;;;;36.95;26.27;;;7.00;99.90;;;;;;2111657;28;20072;-79
2020/12/07 00:32:49;;;;;;;42.10;27.80;;;7.00;99.90;;;;;;2112365;28;20012;-78
2020/12/07 00:33:50;;;;;;;42.92;30.25;;;7.00;99.90;;;;;;2121495;27;20277;-79
2020/12/07 00:34:52;;;;;;;42.95;29.70;;;7.00;99.90;;;;;;2121501;27;20024;-77
2020/12/07 00:35:52;;;;;;;41.58;29.63;;;7.00;99.90;;;;;;2121230;27;20024;-79
2020/12/07 00:36:53;;;;;;;42.13;29.05;;;7.00;99.90;;;;;;2121469;27;20069;-77
2020/12/07 00:37:53;;;;;;;41.13;28.95;;;7.00;99.90;;;;;;2121027;27;20092;-78
2020/12/07 00:38:54;;;;;;;34.90;26.27;;;7.00;99.90;;;;;;2121036;27;20062;-79
2020/12/07 00:39:55;;;;;;;41.20;28.50;;;7.00;99.90;;;;;;2111985;28;20544;-79
2020/12/07 00:40:55;;;;;;;39.00;28.27;;;7.00;99.90;;;;;;2112394;28;20055;-78
2020/12/07 00:41:59;;;;;;;38.13;27.98;;;7.00;99.90;;;;;;2120822;27;20035;-79
2020/12/07 00:43:00;;;;;;;39.42;27.52;;;7.00;99.90;;;;;;2121393;27;20072;-79
2020/12/07 00:44:00;;;;;;;35.45;27.00;;;7.00;99.90;;;;;;2122284;27;20175;-78
2020/12/07 00:45:01;;;;;;;36.08;25.23;;;7.00;99.90;;;;;;2121287;27;20098;-79
2020/12/07 00:46:01;;;;;;;40.17;27.73;;;7.00;99.90;;;;;;2121148;27;20019;-77
2020/12/07 00:47:03;;;;;;;37.63;27.42;;;7.10;99.90;;;;;;2121440;27;20025;-78
2020/12/07 00:48:03;;;;;;;33.50;26.58;;;7.00;99.90;;;;;;2111993;28;20357;-79
2020/12/07 00:49:04;;;;;;;40.92;28.08;;;7.00;99.90;;;;;;2112299;28;20026;-78
2020/12/07 00:50:05;;;;;;;37.47;26.52;;;7.00;99.90;;;;;;2120731;27;20012;-79
2020/12/07 00:51:05;;;;;;;35.85;26.48;;;7.00;99.90;;;;;;2121501;27;20020;-77
2020/12/07 00:52:07;;;;;;;35.95;26.60;;;7.10;99.90;;;;;;2120614;27;20285;-77
2020/12/07 00:53:08;;;;;;;35.30;25.33;;;7.00;99.90;;;;;;2121296;27;20027;-78
2020/12/07 00:54:09;;;;;;;33.95;25.40;;;7.00;99.90;;;;;;2121346;27;20019;-77
2020/12/07 00:55:09;;;;;;;36.83;27.30;;;7.10;99.90;;;;;;2121356;27;20058;-79
2020/12/07 00:56:13;;;;;;;37.63;26.85;;;7.10;99.90;;;;;;2111995;28;20034;-78
2020/12/07 00:57:13;;;;;;;31.33;24.55;;;7.10;99.90;;;;;;2112615;27;20019;-78
2020/12/07 00:58:14;;;;;;;33.75;25.23;;;7.10;99.90;;;;;;2112015;28;20019;-79
2020/12/07 00:59:14;;;;;;;33.33;25.58;;;7.10;99.90;;;;;;2103606;28;20024;-79
2020/12/07 01:00:15;;;;;;;34.67;26.48;;;7.10;99.90;;;;;;2111878;28;20031;-78
2020/12/07 01:01:16;;;;;;;33.83;25.88;;;7.10;99.90;;;;;;2121043;27;20263;-77
2020/12/07 01:02:16;;;;;;;34.95;25.33;;;7.10;99.90;;;;;;2120580;27;20030;-77
2020/12/07 01:03:17;;;;;;;35.60;25.30;;;7.10;99.90;;;;;;2121519;27;20030;-77
2020/12/07 01:04:17;;;;;;;35.83;24.60;;;7.10;99.90;;;;;;2121394;27;20092;-79
2020/12/07 01:05:18;;;;;;;32.28;24.58;;;7.10;99.90;;;;;;2121286;27;20043;-78
2020/12/07 01:06:18;;;;;;;30.92;24.92;;;7.10;99.90;;;;;;2121042;27;20027;-79
2020/12/07 01:07:19;;;;;;;32.60;23.58;;;7.10;99.90;;;;;;2112129;28;20024;-78
2020/12/07 01:08:21;;;;;;;32.05;23.40;;;7.10;99.90;;;;;;2111906;28;20061;-79
2020/12/07 01:09:22;;;;;;;34.05;24.90;;;7.10;99.90;;;;;;2121085;28;20537;-79
2020/12/07 01:10:23;;;;;;;30.92;24.00;;;7.20;99.90;;;;;;2111999;28;20046;-79
2020/12/07 01:11:23;;;;;;;27.85;22.45;;;7.20;99.90;;;;;;2111710;28;20016;-77
2020/12/07 01:12:24;;;;;;;31.45;24.13;;;7.20;99.90;;;;;;2120801;28;20553;-78
2020/12/07 01:13:24;;;;;;;30.45;23.17;;;7.10;99.90;;;;;;2121063;28;20023;-78
2020/12/07 01:14:25;;;;;;;31.80;25.25;;;7.20;99.90;;;;;;2121085;28;20046;-77
2020/12/07 01:15:26;;;;;;;32.65;22.95;;;7.20;99.90;;;;;;2121055;28;20027;-77
2020/12/07 01:16:26;;;;;;;31.60;24.25;;;7.20;99.90;;;;;;2112065;28;20468;-77
2020/12/07 01:17:27;;;;;;;30.85;24.05;;;7.20;99.90;;;;;;2111775;28;20032;-79
2020/12/07 01:18:27;;;;;;;30.70;23.20;;;7.20;99.90;;;;;;2111550;28;20398;-78
2020/12/07 01:19:28;;;;;;;28.67;22.00;;;7.20;99.90;;;;;;2111773;28;20023;-78
2020/12/07 01:20:28;;;;;;;31.90;24.52;;;7.20;99.90;;;;;;2121329;28;20718;-78
2020/12/07 01:21:29;;;;;;;28.55;22.73;;;7.20;99.90;;;;;;2120485;28;20474;-78
2020/12/07 01:22:30;;;;;;;33.15;23.80;;;7.20;99.90;;;;;;2121093;28;20088;-78
2020/12/07 01:23:30;;;;;;;30.85;23.88;;;7.20;99.90;;;;;;2121012;28;20042;-78
2020/12/07 01:24:31;;;;;;;27.65;22.83;;;7.20;99.90;;;;;;2120791;28;20101;-77
2020/12/07 01:25:31;;;;;;;28.25;22.98;;;7.20;99.90;;;;;;2120937;28;20035;-78
2020/12/07 01:26:32;;;;;;;32.10;24.20;;;7.20;99.90;;;;;;2112064;28;20030;-78
2020/12/07 01:27:33;;;;;;;29.90;22.52;;;7.20;99.90;;;;;;2111639;28;20027;-77
2020/12/07 01:28:33;;;;;;;29.80;22.30;;;7.20;99.90;;;;;;2111825;28;20530;-77
2020/12/07 01:29:34;;;;;;;27.75;21.75;;;7.20;99.90;;;;;;2111594;28;20020;-77
2020/12/07 01:30:35;;;;;;;27.27;22.00;;;7.20;99.90;;;;;;2121914;27;20023;-77
2020/12/07 01:31:36;;;;;;;27.67;21.38;;;7.20;99.90;;;;;;2121958;27;20467;-76
2020/12/07 01:32:36;;;;;;;29.90;21.52;;;7.20;99.90;;;;;;2122529;27;20024;-77
2020/12/07 01:33:37;;;;;;;28.05;21.38;;;7.20;99.90;;;;;;2123045;27;20453;-77
2020/12/07 01:34:37;;;;;;;26.42;21.25;;;7.20;99.90;;;;;;2122796;27;20016;-78
2020/12/07 01:35:41;;;;;;;27.98;20.95;;;7.20;99.90;;;;;;2122522;27;20102;-76
2020/12/07 01:36:42;;;;;;;24.58;20.05;;;7.20;99.90;;;;;;2123095;27;20032;-78
2020/12/07 01:37:42;;;;;;;24.98;20.52;;;7.20;99.90;;;;;;2122585;27;20031;-77
2020/12/07 01:38:43;;;;;;;27.45;20.63;;;7.20;99.90;;;;;;2113804;28;20020;-78
2020/12/07 01:39:44;;;;;;;26.67;21.08;;;7.20;99.90;;;;;;2113452;28;20439;-77
2020/12/07 01:40:44;;;;;;;24.75;19.52;;;7.20;99.90;;;;;;2122917;27;20092;-78
2020/12/07 01:41:45;;;;;;;25.73;20.00;;;7.20;99.90;;;;;;2113074;28;20433;-78
2020/12/07 01:42:45;;;;;;;25.35;19.85;;;7.20;99.90;;;;;;2104910;28;20511;-78
2020/12/07 01:43:46;;;;;;;25.55;18.67;;;7.20;99.90;;;;;;2113640;28;20546;-79
2020/12/07 01:44:47;;;;;;;23.40;18.40;;;7.20;99.90;;;;;;2105159;28;20124;-79
2020/12/07 01:45:47;;;;;;;23.35;18.40;;;7.20;99.90;;;;;;2113596;28;20102;-78
2020/12/07 01:46:48;;;;;;;22.25;18.25;;;7.20;99.90;;;;;;2122746;27;20030;-77
2020/12/07 01:47:48;;;;;;;22.90;17.95;;;7.20;99.90;;;;;;2122452;27;20469;-78
2020/12/07 01:48:50;;;;;;;22.52;17.33;;;7.20;99.90;;;;;;2123008;27;20046;-78
2020/12/07 01:49:52;;;;;;;20.70;17.55;;;7.20;99.90;;;;;;2113667;28;20436;-78
2020/12/07 01:50:54;;;;;;;20.50;17.50;;;7.20;99.90;;;;;;2113859;28;20028;-79
2020/12/07 01:51:55;;;;;;;22.38;17.50;;;7.20;99.90;;;;;;2122136;27;20027;-78
2020/12/07 01:52:55;;;;;;;24.30;17.88;;;7.20;99.90;;;;;;2113424;28;20159;-78
2020/12/07 01:53:56;;;;;;;20.60;17.13;;;7.20;99.90;;;;;;2113602;28;20038;-78
2020/12/07 01:54:57;;;;;;;21.08;17.00;;;7.20;99.90;;;;;;2122649;27;20058;-77
2020/12/07 01:55:57;;;;;;;20.17;17.00;;;7.20;99.90;;;;;;2122844;27;20169;-79
2020/12/07 01:56:59;;;;;;;18.40;15.98;;;7.20;99.90;;;;;;2122809;27;20023;-77
2020/12/07 01:57:59;;;;;;;21.15;16.83;;;7.20;99.90;;;;;;2113356;28;20028;-78
2020/12/07 01:59:00;;;;;;;19.45;16.35;;;7.20;99.90;;;;;;2113467;28;20066;-78
2020/12/07 02:00:05;;;;;;;20.35;16.60;;;7.20;99.90;;;;;;2122835;27;20482;-77
2020/12/07 02:01:05;;;;;;;20.15;16.90;;;7.20;99.90;;;;;;2122295;27;20397;-77
2020/12/07 02:02:06;;;;;;;20.30;16.50;;;7.20;99.90;;;;;;2122081;27;20015;-78
2020/12/07 02:03:09;;;;;;;18.55;16.15;;;7.20;99.90;;;;;;2113192;28;20068;-77
2020/12/07 02:04:10;;;;;;;19.63;15.93;;;7.20;99.90;;;;;;2113888;28;20023;-78
2020/12/07 02:05:10;;;;;;;16.75;14.30;;;7.20;99.90;;;;;;2113483;28;20624;-78
2020/12/07 02:06:11;;;;;;;17.25;15.05;;;7.20;99.90;;;;;;2113554;28;20027;-78
2020/12/07 02:07:18;;;;;;;21.05;15.75;;;7.20;99.90;;;;;;2122605;27;20023;-78
2020/12/07 02:08:19;;;;;;;18.98;16.05;;;7.20;99.90;;;;;;2122514;27;20027;-79
2020/12/07 02:09:27;;;;;;;18.25;15.52;;;7.20;99.90;;;;;;2122138;27;20020;-78
2020/12/07 02:10:27;;;;;;;16.95;14.52;;;7.20;99.90;;;;;;2122505;27;20026;-78
2020/12/07 02:11:28;;;;;;;18.20;15.40;;;7.20;99.90;;;;;;2122171;27;20519;-78
2020/12/07 02:12:29;;;;;;;17.88;15.63;;;7.20;99.90;;;;;;2122510;27;20050;-78
2020/12/07 02:13:30;;;;;;;19.35;16.10;;;7.20;99.90;;;;;;2122587;27;20378;-79
2020/12/07 02:14:31;;;;;;;18.23;15.98;;;7.20;99.90;;;;;;2113388;28;20475;-78
2020/12/07 02:15:32;;;;;;;17.80;14.93;;;7.20;99.90;;;;;;2113278;28;20237;-77
2020/12/07 02:16:32;;;;;;;19.17;17.02;;;7.20;99.90;;;;;;2122394;27;20076;-77
2020/12/07 02:17:33;;;;;;;18.42;16.45;;;7.20;99.90;;;;;;2122542;27;20019;-79
2020/12/07 02:18:34;;;;;;;18.55;16.50;;;7.20;99.90;;;;;;2122663;27;20396;-78
2020/12/07 02:19:34;;;;;;;19.38;16.48;;;7.20;99.90;;;;;;2122263;27;20046;-77
2020/12/07 02:20:35;;;;;;;18.60;15.00;;;7.20;99.90;;;;;;2122389;27;20023;-78
2020/12/07 02:21:36;;;;;;;18.08;15.98;;;7.20;99.90;;;;;;2121958;27;20048;-77
2020/12/07 02:22:36;;;;;;;19.88;17.38;;;7.20;99.90;;;;;;2122396;27;20026;-78
2020/12/07 02:23:37;;;;;;;18.83;16.77;;;7.20;99.90;;;;;;2122406;27;20023;-79
2020/12/07 02:24:37;;;;;;;19.05;16.42;;;7.20;99.90;;;;;;2122512;27;20077;-77
2020/12/07 02:25:38;;;;;;;19.17;16.70;;;7.20;99.90;;;;;;2122156;27;20046;-77
2020/12/07 02:26:38;;;;;;;20.67;17.50;;;7.20;99.90;;;;;;2113215;28;20041;-79
2020/12/07 02:27:39;;;;;;;21.67;18.27;;;7.20;99.90;;;;;;2113276;28;20035;-78
2020/12/07 02:28:39;;;;;;;20.42;18.08;;;7.20;99.90;;;;;;2113355;28;20199;-78
2020/12/07 02:29:40;;;;;;;21.80;19.40;;;7.20;99.90;;;;;;2113287;28;20435;-78
2020/12/07 02:30:40;;;;;;;23.45;19.30;;;7.20;99.90;;;;;;2122321;27;20023;-77
2020/12/07 02:31:41;;;;;;;20.63;18.40;;;7.20;99.90;;;;;;2121839;27;20069;-79
2020/12/07 02:32:42;;;;;;;22.85;18.85;;;7.20;99.90;;;;;;2122269;27;20046;-79
2020/12/07 02:33:43;;;;;;;23.95;19.75;;;7.20;99.90;;;;;;2122336;27;20037;-78
2020/12/07 02:34:43;;;;;;;22.08;19.45;;;7.20;99.90;;;;;;2122266;27;20525;-79
2020/12/07 02:35:44;;;;;;;22.58;19.02;;;7.10;99.90;;;;;;2122322;27;20047;-76
2020/12/07 02:36:45;;;;;;;20.17;18.02;;;7.20;99.90;;;;;;2112958;28;20015;-79
2020/12/07 02:37:47;;;;;;;21.13;18.83;;;7.20;99.90;;;;;;2113190;28;20172;-78
2020/12/07 02:38:47;;;;;;;22.75;19.38;;;7.10;99.90;;;;;;2122152;27;20530;-78
2020/12/07 02:39:48;;;;;;;20.85;18.63;;;7.10;99.90;;;;;;2122074;27;20027;-77
2020/12/07 02:40:49;;;;;;;23.15;19.75;;;7.10;99.90;;;;;;2122448;27;20026;-78
2020/12/07 02:41:49;;;;;;;22.42;19.88;;;7.10;99.90;;;;;;2121033;27;20027;-79
2020/12/07 02:42:50;;;;;;;21.90;19.27;;;7.20;99.90;;;;;;2121879;27;20015;-78
2020/12/07 02:43:50;;;;;;;23.80;19.73;;;7.20;99.90;;;;;;2122328;27;20019;-77
2020/12/07 02:44:51;;;;;;;23.42;19.27;;;7.20;99.90;;;;;;2122424;27;20023;-77
2020/12/07 02:45:52;;;;;;;22.63;19.27;;;7.20;99.90;;;;;;2112889;28;20469;-79
2020/12/07 02:46:52;;;;;;;22.50;19.55;;;7.20;99.90;;;;;;2113189;28;20023;-77
2020/12/07 02:47:53;;;;;;;22.83;19.75;;;7.20;99.90;;;;;;2121878;27;20033;-78
2020/12/07 02:48:53;;;;;;;22.40;19.42;;;7.10;99.90;;;;;;2122569;27;20084;-77
2020/12/07 02:49:56;;;;;;;21.10;18.80;;;7.20;99.90;;;;;;2122420;27;20021;-78
2020/12/07 02:50:57;;;;;;;23.25;19.77;;;7.20;99.90;;;;;;2122505;27;20015;-78
2020/12/07 02:51:58;;;;;;;20.92;18.67;;;7.10;99.90;;;;;;2121769;27;20466;-78
2020/12/07 02:52:58;;;;;;;21.17;18.85;;;7.20;99.90;;;;;;2122121;27;20030;-79
2020/12/07 02:53:59;;;;;;;21.75;19.40;;;7.10;99.90;;;;;;2122194;27;20026;-78
2020/12/07 02:55:02;;;;;;;21.63;19.33;;;7.20;99.90;;;;;;2112936;28;20015;-78
2020/12/07 02:56:03;;;;;;;22.58;19.15;;;7.20;99.90;;;;;;2113241;27;20803;-77
2020/12/07 02:57:04;;;;;;;22.50;20.13;;;7.20;99.90;;;;;;2122057;27;20024;-77
2020/12/07 02:58:11;;;;;;;21.15;18.95;;;7.20;99.90;;;;;;2122179;27;20027;-78
2020/12/07 02:59:12;;;;;;;20.35;18.25;;;7.20;99.90;;;;;;2119886;27;20018;-77
2020/12/07 03:00:12;;;;;;;20.83;18.42;;;7.20;99.90;;;;;;2121914;27;20027;-78
2020/12/07 03:01:13;;;;;;;21.00;18.80;;;7.20;99.90;;;;;;2113826;28;20119;-79
2020/12/07 03:02:14;;;;;;;22.63;18.65;;;7.20;99.90;;;;;;2113267;28;20030;-77
2020/12/07 03:03:14;;;;;;;21.42;19.08;;;7.20;99.90;;;;;;2123069;27;20087;-78
2020/12/07 03:04:15;;;;;;;20.13;18.02;;;7.20;99.90;;;;;;2113815;28;20439;-79
2020/12/07 03:05:15;;;;;;;20.52;18.38;;;7.20;99.90;;;;;;2113613;28;20484;-77
2020/12/07 03:06:16;;;;;;;22.42;18.80;;;7.20;99.90;;;;;;2122844;27;20071;-78
2020/12/07 03:07:17;;;;;;;20.27;18.17;;;7.20;99.90;;;;;;2122883;27;20098;-78
2020/12/07 03:08:17;;;;;;;20.88;18.60;;;7.20;99.90;;;;;;2122919;27;20035;-78
2020/12/07 03:09:18;;;;;;;20.50;17.77;;;7.20;99.90;;;;;;2122771;27;20030;-77
2020/12/07 03:10:18;;;;;;;22.10;19.70;;;7.20;99.90;;;;;;2122811;27;20023;-76
2020/12/07 03:11:19;;;;;;;21.88;18.25;;;7.20;99.90;;;;;;2122966;27;20114;-76
2020/12/07 03:12:21;;;;;;;20.25;18.15;;;7.20;99.90;;;;;;2113259;28;20023;-77
2020/12/07 03:13:21;;;;;;;21.27;19.05;;;7.20;99.90;;;;;;2113744;28;20026;-77
2020/12/07 03:14:22;;;;;;;21.48;18.63;;;7.20;99.90;;;;;;2122925;27;20034;-77
2020/12/07 03:15:23;;;;;;;23.70;19.83;;;7.20;99.90;;;;;;2122785;27;20035;-77
2020/12/07 03:16:23;;;;;;;23.60;21.10;;;7.20;99.90;;;;;;2122426;27;20139;-76
2020/12/07 03:17:24;;;;;;;23.30;20.15;;;7.20;99.90;;;;;;2113654;28;20020;-78
2020/12/07 03:18:24;;;;;;;22.65;20.23;;;7.20;99.90;;;;;;2105179;28;20305;-78
2020/12/07 03:19:25;;;;;;;22.65;20.17;;;7.20;99.90;;;;;;2113613;28;20043;-77
2020/12/07 03:20:25;;;;;;;23.55;20.48;;;7.20;99.90;;;;;;2122839;27;20063;-78
2020/12/07 03:21:26;;;;;;;22.17;19.77;;;7.20;99.90;;;;;;2122128;27;20080;-77
2020/12/07 03:22:26;;;;;;;22.25;19.90;;;7.20;99.90;;;;;;2122839;27;20019;-78
2020/12/07 03:23:27;;;;;;;23.40;20.27;;;7.20;99.90;;;;;;2122849;27;20359;-78
2020/12/07 03:24:27;;;;;;;23.67;21.17;;;7.20;99.90;;;;;;2113673;28;20436;-77
2020/12/07 03:25:28;;;;;;;22.25;19.77;;;7.20;99.90;;;;;;2113322;28;20463;-78
2020/12/07 03:26:28;;;;;;;26.02;21.88;;;7.20;99.90;;;;;;2113047;28;20141;-77
2020/12/07 03:27:29;;;;;;;23.98;20.17;;;7.20;99.90;;;;;;2113502;28;20031;-77
2020/12/07 03:28:29;;;;;;;23.45;20.08;;;7.20;99.90;;;;;;2122669;27;20470;-77
2020/12/07 03:29:30;;;;;;;25.50;21.15;;;7.20;99.90;;;;;;2122780;27;20399;-78
2020/12/07 03:30:31;;;;;;;23.75;21.25;;;7.20;99.90;;;;;;2122722;27;20054;-78
2020/12/07 03:31:37;;;;;;;21.88;19.52;;;7.20;99.90;;;;;;2122178;27;20036;-77
2020/12/07 03:32:37;;;;;;;22.77;19.33;;;7.20;99.90;;;;;;2122349;27;20019;-78
2020/12/07 03:33:38;;;;;;;21.77;18.77;;;7.10;99.90;;;;;;2122527;27;20466;-77
2020/12/07 03:34:38;;;;;;;21.75;19.42;;;7.10;99.90;;;;;;2122434;27;20034;-77
2020/12/07 03:35:39;;;;;;;22.67;19.85;;;7.10;99.90;;;;;;2122810;27;20035;-78
2020/12/07 03:36:40;;;;;;;22.50;19.00;;;7.10;99.90;;;;;;2122813;27;20023;-77
2020/12/07 03:37:41;;;;;;;22.13;19.48;;;7.10;99.90;;;;;;2122631;27;20023;-77
2020/12/07 03:38:42;;;;;;;21.85;19.55;;;7.10;99.90;;;;;;2113299;28;20504;-78
2020/12/07 03:39:42;;;;;;;23.90;20.70;;;7.10;99.90;;;;;;2113445;28;20062;-77
2020/12/07 03:40:43;;;;;;;25.65;21.50;;;7.10;99.90;;;;;;2113568;28;20361;-78
2020/12/07 03:41:43;;;;;;;25.58;21.42;;;7.10;99.90;;;;;;2112988;28;20489;-77
2020/12/07 03:42:44;;;;;;;25.80;22.27;;;7.10;99.90;;;;;;2113229;28;20046;-78
2020/12/07 03:43:45;;;;;;;25.35;21.67;;;7.10;99.90;;;;;;2113501;28;20051;-77
2020/12/07 03:44:45;;;;;;;23.13;20.60;;;7.10;99.90;;;;;;2114239;28;20028;-77
2020/12/07 03:45:46;;;;;;;23.95;20.92;;;7.10;99.90;;;;;;2113478;28;20022;-76
2020/12/07 03:46:46;;;;;;;27.52;22.05;;;7.10;99.90;;;;;;2113573;28;20027;-77
2020/12/07 03:47:47;;;;;;;25.75;21.65;;;7.10;99.90;;;;;;2122468;27;20076;-78
2020/12/07 03:48:48;;;;;;;24.20;21.27;;;7.10;99.90;;;;;;2122362;27;20364;-77
2020/12/07 03:49:49;;;;;;;25.55;22.27;;;7.10;99.90;;;;;;2122394;27;20031;-77
2020/12/07 03:50:49;;;;;;;25.35;22.65;;;7.10;99.90;;;;;;2121945;27;20023;-78
2020/12/07 03:51:50;;;;;;;24.20;21.15;;;7.10;99.90;;;;;;2122006;27;20015;-77
2020/12/07 03:52:50;;;;;;;24.27;21.70;;;7.10;99.90;;;;;;2122604;27;20047;-78
2020/12/07 03:53:51;;;;;;;27.02;23.73;;;7.20;99.90;;;;;;2122601;27;20585;-78
2020/12/07 03:54:51;;;;;;;25.73;22.83;;;7.20;99.90;;;;;;2122390;27;20024;-79
2020/12/07 03:55:52;;;;;;;26.95;23.45;;;7.20;99.90;;;;;;2113655;28;20097;-78
2020/12/07 03:56:52;;;;;;;25.48;22.10;;;7.20;99.90;;;;;;2104831;28;20047;-78
2020/12/07 03:57:53;;;;;;;26.10;22.35;;;7.20;99.90;;;;;;2113408;28;20134;-76
2020/12/07 03:58:53;;;;;;;25.98;22.98;;;7.20;99.90;;;;;;2122682;27;20019;-78
2020/12/07 03:59:54;;;;;;;25.15;22.48;;;7.20;99.90;;;;;;2122442;27;20023;-79
2020/12/07 04:00:56;;;;;;;27.05;22.88;;;7.10;99.90;;;;;;2122417;27;20023;-77
2020/12/07 04:01:56;;;;;;;26.48;23.67;;;7.10;99.90;;;;;;2121528;27;20019;-78
2020/12/07 04:02:57;;;;;;;26.17;23.33;;;7.10;99.90;;;;;;2121750;27;20068;-78
2020/12/07 04:04:03;;;;;;;25.77;22.88;;;7.20;99.90;;;;;;2122073;27;20411;-78
2020/12/07 04:05:12;;;;;;;28.75;24.77;;;7.10;99.90;;;;;;2112590;28;20476;-78
2020/12/07 04:06:24;;;;;;;27.65;23.27;;;7.10;99.90;;;;;;2105561;28;20028;-78
2020/12/07 04:07:24;;;;;;;25.80;23.02;;;7.10;99.90;;;;;;2114325;27;20019;-77
2020/12/07 04:08:25;;;;;;;26.75;23.00;;;7.10;99.90;;;;;;2112554;28;20047;-77
2020/12/07 04:09:25;;;;;;;27.05;23.20;;;7.10;99.90;;;;;;2112781;28;20020;-78
2020/12/07 04:10:26;;;;;;;24.88;22.17;;;7.10;99.90;;;;;;2121956;27;20034;-78
2020/12/07 04:11:26;;;;;;;26.55;23.10;;;7.10;99.90;;;;;;2111229;28;20023;-76
2020/12/07 04:12:27;;;;;;;27.17;24.25;;;7.10;99.90;;;;;;2103937;28;20020;-79
2020/12/07 04:13:27;;;;;;;25.40;22.70;;;7.10;99.90;;;;;;2112639;28;20052;-77
2020/12/07 04:14:28;;;;;;;27.15;23.38;;;7.20;99.90;;;;;;2121607;27;20027;-79
2020/12/07 04:15:29;;;;;;;26.38;23.52;;;7.10;99.90;;;;;;2121563;27;20094;-78
2020/12/07 04:16:29;;;;;;;27.80;24.80;;;7.10;99.90;;;;;;2121694;27;20102;-78
2020/12/07 04:17:30;;;;;;;26.52;23.83;;;7.10;99.90;;;;;;2121388;27;20442;-76
2020/12/07 04:18:30;;;;;;;27.50;24.60;;;7.10;99.90;;;;;;2121552;27;20054;-76
2020/12/07 04:19:31;;;;;;;25.73;22.88;;;7.10;99.90;;;;;;2121482;27;20031;-76
2020/12/07 04:20:32;;;;;;;26.67;23.77;;;7.10;99.90;;;;;;2112429;28;20123;-79
2020/12/07 04:21:32;;;;;;;27.88;23.10;;;7.10;99.90;;;;;;2103648;28;20024;-78
2020/12/07 04:22:33;;;;;;;26.95;24.05;;;7.10;99.90;;;;;;2112335;28;20084;-79
2020/12/07 04:23:33;;;;;;;27.77;22.95;;;7.20;99.90;;;;;;2112574;28;20035;-79
2020/12/07 04:24:34;;;;;;;27.27;23.85;;;7.20;99.90;;;;;;2112272;28;20051;-78
2020/12/07 04:25:34;;;;;;;27.25;24.42;;;7.20;99.90;;;;;;2112273;28;20426;-79
2020/12/07 04:26:35;;;;;;;28.80;24.40;;;7.20;99.90;;;;;;2112390;28;20486;-79
2020/12/07 04:27:35;;;;;;;25.77;22.83;;;7.20;99.90;;;;;;2121375;27;20035;-78
2020/12/07 04:28:36;;;;;;;27.65;24.30;;;7.20;99.90;;;;;;2121314;27;20027;-79
2020/12/07 04:29:37;;;;;;;28.15;25.10;;;7.20;99.90;;;;;;2121646;27;20034;-79
2020/12/07 04:30:40;;;;;;;28.42;25.33;;;7.20;99.90;;;;;;2121334;27;20487;-79
2020/12/07 04:31:40;;;;;;;26.98;24.15;;;7.20;99.90;;;;;;2121166;27;20107;-79
2020/12/07 04:32:41;;;;;;;27.33;24.40;;;7.20;99.90;;;;;;2121472;27;20023;-80
2020/12/07 04:33:41;;;;;;;27.15;24.25;;;7.20;99.90;;;;;;2121151;27;20020;-79
2020/12/07 04:34:42;;;;;;;27.10;24.20;;;7.20;99.90;;;;;;2121389;27;20077;-79
2020/12/07 04:35:42;;;;;;;26.80;24.08;;;7.20;99.90;;;;;;2112280;28;20016;-79
2020/12/07 04:36:43;;;;;;;29.25;26.15;;;7.20;99.90;;;;;;2112196;28;20039;-79
2020/12/07 04:37:43;;;;;;;28.10;25.17;;;7.20;99.90;;;;;;2121419;27;20023;-79
2020/12/07 04:38:44;;;;;;;26.60;23.77;;;7.20;99.90;;;;;;2112126;28;20015;-80
2020/12/07 04:39:45;;;;;;;29.10;25.52;;;7.20;99.90;;;;;;2103924;28;20119;-78
2020/12/07 04:40:46;;;;;;;29.05;25.95;;;7.20;99.90;;;;;;2112176;28;20020;-80
2020/12/07 04:41:47;;;;;;;29.42;26.30;;;7.20;99.90;;;;;;2111863;28;20023;-78
2020/12/07 04:42:47;;;;;;;27.65;24.75;;;7.20;99.90;;;;;;2112535;28;20475;-78
2020/12/07 04:43:49;;;;;;;30.10;26.67;;;7.20;99.90;;;;;;2121497;27;20471;-78
2020/12/07 04:44:49;;;;;;;30.52;26.17;;;7.20;99.90;;;;;;2121233;27;20015;-80
2020/12/07 04:45:50;;;;;;;30.05;26.77;;;7.20;99.90;;;;;;2121549;27;20240;-80
2020/12/07 04:46:52;;;;;;;29.13;25.95;;;7.20;99.90;;;;;;2112179;28;20024;-79
2020/12/07 04:47:53;;;;;;;29.25;26.20;;;7.20;99.90;;;;;;2112147;28;20047;-78
2020/12/07 04:48:57;;;;;;;29.77;26.08;;;7.20;99.90;;;;;;2121172;27;20035;-78
2020/12/07 04:50:03;;;;;;;30.33;27.10;;;7.20;99.90;;;;;;2121351;27;20030;-79
2020/12/07 04:51:04;;;;;;;30.17;26.92;;;7.10;99.90;;;;;;2121195;27;20379;-80
2020/12/07 04:52:05;;;;;;;32.20;27.08;;;7.10;99.90;;;;;;2120902;27;20015;-78
2020/12/07 04:53:07;;;;;;;31.85;25.73;;;7.10;99.90;;;;;;2121130;27;20042;-79
2020/12/07 04:54:10;;;;;;;30.75;26.70;;;7.10;99.90;;;;;;2121361;27;20051;-78
2020/12/07 04:55:10;;;;;;;31.67;27.70;;;7.10;99.90;;;;;;2121091;27;20019;-79
2020/12/07 04:56:12;;;;;;;30.40;27.10;;;7.10;99.90;;;;;;2121416;27;20356;-79
2020/12/07 04:57:14;;;;;;;31.33;28.00;;;7.10;99.90;;;;;;2111944;28;20020;-80
2020/12/07 04:58:15;;;;;;;31.73;27.40;;;7.10;99.90;;;;;;2112056;28;20102;-79
2020/12/07 04:59:18;;;;;;;30.45;27.25;;;7.10;99.90;;;;;;2111924;28;20045;-79
2020/12/07 05:00:23;;;;;;;31.48;26.90;;;7.10;99.90;;;;;;2112729;27;20494;-80
2020/12/07 05:01:23;;;;;;;29.75;26.65;;;7.10;99.90;;;;;;2120647;27;20061;-79
2020/12/07 05:02:25;;;;;;;30.83;27.42;;;7.10;99.90;;;;;;2121185;27;20034;-79
2020/12/07 05:03:26;;;;;;;29.85;26.42;;;7.10;99.90;;;;;;2121289;27;20067;-79
2020/12/07 05:04:27;;;;;;;29.55;25.73;;;7.10;99.90;;;;;;2121270;27;20018;-79
2020/12/07 05:05:28;;;;;;;29.92;26.60;;;7.10;99.90;;;;;;2120584;27;20026;-80
2020/12/07 05:06:31;;;;;;;30.35;26.73;;;7.10;99.90;;;;;;2121405;27;20122;-78
2020/12/07 05:07:33;;;;;;;30.52;26.30;;;7.10;99.90;;;;;;2111738;28;20085;-77
2020/12/07 05:08:37;;;;;;;28.70;25.60;;;7.10;99.90;;;;;;2112027;28;20027;-79
2020/12/07 05:09:38;;;;;;;30.20;25.20;;;7.00;99.90;;;;;;2121197;28;20339;-78
2020/12/07 05:10:41;;;;;;;27.80;23.50;;;7.00;99.90;;;;;;2121337;28;20019;-80
2020/12/07 05:11:42;;;;;;;27.83;24.60;;;7.10;99.90;;;;;;2120900;28;20011;-79
2020/12/07 05:12:47;;;;;;;26.48;23.52;;;7.00;99.90;;;;;;2121374;28;20059;-78